createdAt,value
2023-09-19T00:00:58.968Z,19.92
2023-09-19T00:03:29.810Z,19.99
2023-09-19T00:05:59.091Z,20.05
2023-09-19T00:08:26.578Z,20.03
2023-09-19T00:10:54.792Z,20.04
2023-09-19T00:13:22.136Z,20.00
2023-09-19T00:15:50.764Z,20.01
2023-09-19T00:18:29.310Z,19.93
2023-09-19T00:20:59.949Z,19.79
2023-09-19T00:23:28.101Z,19.66
2023-09-19T00:25:58.572Z,19.64
2023-09-19T00:28:25.893Z,19.60
2023-09-19T00:30:55.762Z,19.48
2023-09-19T00:33:23.356Z,19.44
2023-09-19T00:35:51.278Z,19.38
2023-09-19T00:38:22.186Z,19.35
2023-09-19T00:40:50.045Z,19.16
2023-09-19T00:43:17.961Z,18.95
2023-09-19T00:45:46.788Z,18.86
2023-09-19T00:48:14.283Z,18.75
2023-09-19T00:50:43.791Z,18.68
2023-09-19T00:53:11.507Z,18.62
2023-09-19T00:55:38.904Z,18.53
2023-09-19T00:58:07.963Z,18.46
2023-09-19T01:00:35.337Z,18.39
2023-09-19T01:03:02.941Z,18.31
2023-09-19T01:05:33.473Z,18.28
2023-09-19T01:08:00.825Z,18.23
2023-09-19T01:10:28.231Z,18.24
2023-09-19T01:13:11.890Z,18.22
2023-09-19T01:16:13.213Z,18.23
2023-09-19T01:18:54.343Z,18.29
2023-09-19T01:21:29.596Z,18.31
2023-09-19T01:24:36.348Z,18.35
2023-09-19T01:27:15.898Z,18.31
2023-09-19T01:29:45.233Z,18.28
2023-09-19T01:32:14.687Z,18.26
2023-09-19T01:34:49.912Z,18.23
2023-09-19T01:37:21.021Z,18.28
2023-09-19T01:39:49.755Z,18.23
2023-09-19T01:42:49.221Z,18.18
2023-09-19T01:45:28.788Z,18.14
2023-09-19T01:47:59.600Z,18.12
2023-09-19T01:50:42.114Z,18.17
2023-09-19T01:53:49.312Z,18.17
2023-09-19T01:56:22.995Z,18.15
2023-09-19T01:58:50.867Z,18.14
2023-09-19T02:01:23.540Z,18.10
2023-09-19T02:03:51.352Z,18.16
2023-09-19T02:06:20.196Z,18.18
2023-09-19T02:08:48.457Z,18.16
2023-09-19T02:11:15.836Z,18.19
2023-09-19T02:13:44.065Z,18.15
2023-09-19T02:16:13.759Z,18.13
2023-09-19T02:18:41.187Z,18.10
2023-09-19T02:21:11.142Z,18.12
2023-09-19T02:23:41.188Z,18.10
2023-09-19T02:26:08.680Z,18.11
2023-09-19T02:28:37.083Z,18.14
2023-09-19T02:31:06.830Z,18.13
2023-09-19T02:33:34.278Z,18.12
2023-09-19T02:36:02.197Z,18.06
2023-09-19T02:38:30.316Z,18.00
2023-09-19T02:40:57.813Z,18.02
2023-09-19T02:43:25.666Z,18.01
2023-09-19T02:45:56.190Z,18.02
2023-09-19T02:48:23.676Z,18.03
2023-09-19T02:50:51.129Z,18.04
2023-09-19T02:53:18.566Z,18.00
2023-09-19T02:55:46.163Z,17.95
2023-09-19T02:58:15.257Z,17.88
2023-09-19T03:00:48.766Z,17.88
2023-09-19T03:03:18.017Z,17.90
2023-09-19T03:05:49.792Z,17.89
2023-09-19T03:08:18.711Z,17.93
2023-09-19T03:10:49.195Z,17.90
2023-09-19T03:13:17.210Z,17.86
2023-09-19T03:15:51.836Z,17.88
2023-09-19T03:18:24.752Z,17.91
2023-09-19T03:20:56.299Z,17.96
2023-09-19T03:23:24.453Z,17.90
2023-09-19T03:25:53.512Z,17.86
2023-09-19T03:28:22.125Z,17.79
2023-09-19T03:31:18.991Z,17.75
2023-09-19T03:33:48.101Z,17.76
2023-09-19T03:36:15.383Z,17.76
2023-09-19T03:38:42.742Z,17.70
2023-09-19T03:41:10.534Z,17.69
2023-09-19T03:43:38.293Z,17.70
2023-09-19T03:46:06.331Z,17.63
2023-09-19T03:48:34.907Z,17.65
2023-09-19T03:51:03.548Z,17.67
2023-09-19T03:53:30.941Z,17.69
2023-09-19T03:55:58.772Z,17.75
2023-09-19T03:58:26.284Z,17.81
2023-09-19T04:00:57.031Z,17.82
2023-09-19T04:03:25.708Z,17.75
2023-09-19T04:05:53.086Z,17.69
2023-09-19T04:08:20.480Z,17.65
2023-09-19T04:10:47.814Z,17.65
2023-09-19T04:13:16.656Z,17.59
2023-09-19T04:15:44.645Z,17.59
2023-09-19T04:18:11.994Z,17.58
2023-09-19T04:20:39.751Z,17.65
2023-09-19T04:23:07.214Z,17.64
2023-09-19T04:25:34.714Z,17.61
2023-09-19T04:28:02.088Z,17.58
2023-09-19T04:30:29.441Z,17.59
2023-09-19T04:32:56.817Z,17.61
2023-09-19T04:35:24.176Z,17.60
2023-09-19T04:37:51.717Z,17.78
2023-09-19T04:40:20.432Z,17.85
2023-09-19T04:42:57.633Z,17.72
2023-09-19T04:45:25.597Z,17.60
2023-09-19T04:47:53.124Z,17.59
2023-09-19T04:50:22.157Z,17.59
2023-09-19T04:52:52.654Z,17.66
2023-09-19T04:55:20.638Z,17.74
2023-09-19T04:57:48.946Z,17.74
2023-09-19T05:00:18.277Z,17.63
2023-09-19T05:02:45.894Z,17.67
2023-09-19T05:05:15.700Z,17.52
2023-09-19T05:07:43.570Z,17.49
2023-09-19T05:10:13.992Z,17.48
2023-09-19T05:12:41.933Z,17.52
2023-09-19T05:15:09.502Z,17.62
2023-09-19T05:17:36.899Z,17.73
2023-09-19T05:20:25.788Z,17.79
2023-09-19T05:23:03.343Z,17.87
2023-09-19T05:25:32.666Z,17.92
2023-09-19T05:28:00.082Z,17.93
2023-09-19T05:30:28.511Z,17.93
2023-09-19T05:32:56.187Z,17.94
2023-09-19T05:35:23.951Z,17.95
2023-09-19T05:37:52.174Z,18.00
2023-09-19T05:40:19.784Z,18.05
2023-09-19T05:42:47.486Z,18.02
2023-09-19T05:45:15.415Z,18.02
2023-09-19T05:47:44.310Z,18.07
2023-09-19T05:50:11.685Z,18.11
2023-09-19T05:52:39.480Z,18.15
2023-09-19T05:55:08.344Z,18.21
2023-09-19T05:57:35.921Z,18.20
2023-09-19T06:00:05.092Z,18.20
2023-09-19T06:02:39.554Z,18.23
2023-09-19T06:05:07.782Z,18.15
2023-09-19T06:07:38.199Z,18.33
2023-09-19T06:10:09.601Z,18.42
2023-09-19T06:12:40.690Z,18.52
2023-09-19T06:15:16.083Z,18.56
2023-09-19T06:17:44.371Z,18.71
2023-09-19T06:20:15.660Z,18.93
2023-09-19T06:22:43.421Z,19.20
2023-09-19T06:25:12.958Z,19.38
2023-09-19T06:27:43.499Z,19.42
2023-09-19T06:30:12.621Z,19.36
2023-09-19T06:32:40.097Z,19.31
2023-09-19T06:35:12.259Z,19.31
2023-09-19T06:37:39.989Z,19.24
2023-09-19T06:40:16.777Z,19.24
2023-09-19T06:42:46.558Z,19.42
2023-09-19T06:45:19.060Z,19.51
2023-09-19T06:47:47.329Z,19.81
2023-09-19T06:50:15.701Z,19.90
2023-09-19T06:52:43.099Z,20.09
2023-09-19T06:55:14.680Z,20.45
2023-09-19T06:57:42.062Z,20.58
2023-09-19T07:00:16.658Z,20.48
2023-09-19T07:02:44.389Z,20.60
2023-09-19T07:05:11.836Z,20.54
2023-09-19T07:07:40.304Z,20.48
2023-09-19T07:10:09.540Z,20.51
2023-09-19T07:12:36.837Z,20.52
2023-09-19T07:15:04.372Z,20.67
2023-09-19T07:17:31.824Z,20.74
2023-09-19T07:19:59.911Z,20.89
2023-09-19T07:22:28.252Z,20.81
2023-09-19T07:24:56.140Z,21.03
2023-09-19T07:27:23.539Z,21.12
2023-09-19T07:29:52.310Z,21.26
2023-09-19T07:32:21.767Z,21.36
2023-09-19T07:34:49.341Z,21.40
2023-09-19T07:37:17.654Z,21.35
2023-09-19T07:39:46.001Z,21.40
2023-09-19T07:42:18.768Z,21.47
2023-09-19T07:44:48.768Z,21.70
2023-09-19T07:47:16.183Z,21.73
2023-09-19T07:49:43.916Z,21.84
2023-09-19T07:52:11.571Z,21.81
2023-09-19T07:54:39.991Z,21.88
2023-09-19T07:57:07.368Z,22.04
2023-09-19T07:59:34.660Z,22.03
2023-09-19T08:02:02.260Z,22.12
2023-09-19T08:04:31.938Z,21.99
2023-09-19T08:07:01.590Z,22.02
2023-09-19T08:09:29.159Z,21.95
2023-09-19T08:11:56.486Z,22.05
2023-09-19T08:14:26.101Z,22.10
2023-09-19T08:16:53.520Z,22.07
2023-09-19T08:19:24.540Z,21.96
2023-09-19T08:21:51.959Z,21.86
2023-09-19T08:24:20.167Z,21.69
2023-09-19T08:26:47.665Z,21.60
2023-09-19T08:29:15.135Z,21.62
2023-09-19T08:31:42.494Z,21.63
2023-09-19T08:34:09.928Z,21.54
2023-09-19T08:36:38.349Z,21.71
2023-09-19T08:39:05.700Z,21.78
2023-09-19T08:41:33.585Z,21.81
2023-09-19T08:44:02.945Z,21.76
2023-09-19T08:46:31.755Z,21.75
2023-09-19T08:49:04.052Z,21.74
2023-09-19T08:51:47.566Z,21.83
2023-09-19T08:54:27.555Z,21.84
2023-09-19T08:56:58.193Z,21.83
2023-09-19T08:59:25.702Z,21.77
2023-09-19T09:01:55.046Z,21.77
2023-09-19T09:04:22.924Z,21.77
2023-09-19T09:06:52.083Z,21.54
2023-09-19T09:09:19.355Z,21.53
2023-09-19T09:11:46.803Z,21.41
2023-09-19T09:14:14.204Z,21.28
2023-09-19T09:16:41.666Z,21.22
2023-09-19T09:19:09.003Z,21.24
2023-09-19T09:21:40.238Z,21.25
2023-09-19T09:24:35.592Z,21.23
2023-09-19T09:27:08.609Z,21.26
2023-09-19T09:29:53.245Z,21.28
2023-09-19T09:32:21.312Z,21.24
2023-09-19T09:34:50.767Z,21.06
2023-09-19T09:37:21.281Z,21.13
2023-09-19T09:39:57.094Z,21.14
2023-09-19T09:42:33.289Z,21.23
2023-09-19T09:45:16.276Z,21.26
2023-09-19T09:47:56.067Z,21.35
2023-09-19T09:50:39.073Z,21.45
2023-09-19T09:53:20.699Z,21.38
2023-09-19T09:56:10.719Z,21.45
2023-09-19T09:59:00.727Z,21.44
2023-09-19T10:01:32.494Z,21.33
2023-09-19T10:04:01.640Z,21.29
2023-09-19T10:06:41.612Z,21.28
2023-09-19T10:09:12.848Z,21.31
2023-09-19T10:11:47.697Z,21.30
2023-09-19T10:14:17.839Z,20.99
2023-09-19T10:16:49.472Z,21.03
2023-09-19T10:19:35.102Z,21.11
2023-09-19T10:22:03.250Z,21.06
2023-09-19T10:24:32.325Z,21.05
2023-09-19T10:27:00.905Z,20.91
2023-09-19T10:29:30.079Z,20.92
2023-09-19T10:31:59.585Z,20.98
2023-09-19T10:34:27.103Z,21.02
2023-09-19T10:36:56.022Z,20.98
2023-09-19T10:39:23.283Z,20.97
2023-09-19T10:41:54.960Z,20.86
2023-09-19T10:44:26.357Z,20.91
2023-09-19T10:46:54.917Z,20.91
2023-09-19T10:49:23.588Z,20.89
2023-09-19T10:51:55.883Z,20.78
2023-09-19T10:54:27.771Z,20.68
2023-09-19T10:56:55.485Z,20.69
2023-09-19T10:59:23.159Z,20.63
2023-09-19T11:01:58.090Z,20.55
2023-09-19T11:04:32.602Z,20.51
2023-09-19T11:07:12.293Z,20.46
2023-09-19T11:09:49.109Z,20.39
2023-09-19T11:12:42.011Z,20.22
2023-09-19T11:15:11.772Z,20.14
2023-09-19T11:17:43.485Z,20.22
2023-09-19T11:20:14.732Z,20.34
2023-09-19T11:22:53.383Z,20.47
2023-09-19T11:25:34.021Z,20.53
2023-09-19T11:28:13.735Z,20.47
2023-09-19T11:30:41.955Z,20.70
2023-09-19T11:33:42.541Z,20.74
2023-09-19T11:36:16.982Z,20.62
2023-09-19T11:38:53.835Z,20.64
2023-09-19T11:41:27.426Z,20.69
2023-09-19T11:44:01.917Z,20.55
2023-09-19T11:46:29.819Z,20.48
2023-09-19T11:48:57.294Z,20.58
2023-09-19T11:51:28.113Z,20.76
2023-09-19T11:53:57.008Z,20.97
2023-09-19T11:56:26.850Z,20.86
2023-09-19T11:58:57.845Z,20.66
2023-09-19T12:01:34.942Z,20.93
2023-09-19T12:04:03.334Z,21.20
2023-09-19T12:06:31.201Z,21.27
2023-09-19T12:09:00.749Z,21.34
2023-09-19T12:11:35.106Z,21.46
2023-09-19T12:14:03.403Z,21.35
2023-09-19T12:16:35.237Z,21.02
2023-09-19T12:19:21.458Z,20.93
2023-09-19T12:21:59.288Z,20.71
2023-09-19T12:24:30.895Z,20.62
2023-09-19T12:27:06.539Z,20.38
2023-09-19T12:29:46.057Z,20.32
2023-09-19T12:32:14.090Z,20.28
2023-09-19T12:34:44.145Z,20.16
2023-09-19T12:37:28.524Z,20.08
2023-09-19T12:40:23.492Z,20.00
2023-09-19T12:42:51.175Z,19.88
2023-09-19T12:45:19.573Z,19.77
2023-09-19T12:48:35.754Z,19.70
2023-09-19T12:51:10.667Z,19.68
2023-09-19T12:53:44.179Z,19.68
2023-09-19T12:56:15.251Z,19.67
2023-09-19T12:59:04.282Z,19.58
2023-09-19T13:01:33.200Z,19.64
2023-09-19T13:04:20.411Z,19.60
2023-09-19T13:06:50.304Z,19.75
2023-09-19T13:09:22.656Z,19.89
2023-09-19T13:11:54.722Z,19.87
2023-09-19T13:14:24.810Z,19.75
2023-09-19T13:16:59.861Z,19.73
2023-09-19T13:19:40.190Z,19.69
2023-09-19T13:22:55.131Z,19.70
2023-09-19T13:25:23.192Z,19.59
2023-09-19T13:27:56.840Z,19.59
2023-09-19T13:30:28.155Z,19.64
2023-09-19T13:33:07.657Z,19.61
2023-09-19T13:35:35.013Z,19.54
2023-09-19T13:38:02.477Z,19.53
2023-09-19T13:40:32.921Z,19.52
2023-09-19T13:43:00.566Z,19.53
2023-09-19T13:45:28.238Z,19.46
2023-09-19T13:47:55.866Z,19.61
2023-09-19T13:50:25.624Z,19.57
2023-09-19T13:52:54.252Z,19.68
2023-09-19T13:55:21.878Z,19.76
2023-09-19T13:57:55.670Z,19.73
2023-09-19T14:00:23.917Z,19.80
2023-09-19T14:02:52.543Z,19.82
2023-09-19T14:05:22.410Z,19.76
2023-09-19T14:07:49.922Z,19.79
2023-09-19T14:10:17.449Z,19.81
2023-09-19T14:12:46.360Z,19.93
2023-09-19T14:15:13.717Z,19.92
2023-09-19T14:17:43.459Z,19.84
2023-09-19T14:20:11.736Z,19.89
2023-09-19T14:22:39.282Z,19.94
2023-09-19T14:25:06.966Z,19.97
2023-09-19T14:27:34.237Z,19.85
2023-09-19T14:30:01.643Z,19.86
2023-09-19T14:32:28.971Z,19.95
2023-09-19T14:34:56.730Z,19.87
2023-09-19T14:37:24.031Z,19.96
2023-09-19T14:39:51.326Z,20.07
2023-09-19T14:42:19.105Z,20.18
2023-09-19T14:44:48.774Z,20.10
2023-09-19T14:47:17.846Z,20.15
2023-09-19T14:49:45.918Z,20.11
2023-09-19T14:52:16.952Z,20.17
2023-09-19T14:54:44.646Z,20.22
2023-09-19T14:57:12.072Z,20.97
2023-09-19T14:59:40.136Z,21.81
2023-09-19T15:02:07.883Z,21.40
2023-09-19T15:04:35.649Z,21.40
2023-09-19T15:07:04.136Z,21.06
2023-09-19T15:09:33.574Z,21.65
2023-09-19T15:12:01.101Z,21.53
2023-09-19T15:14:28.532Z,21.63
2023-09-19T15:16:57.416Z,21.38
2023-09-19T15:19:24.797Z,21.22
2023-09-19T15:21:52.097Z,21.04
2023-09-19T15:24:19.426Z,20.77
2023-09-19T15:26:47.424Z,20.56
2023-09-19T15:29:14.849Z,20.48
2023-09-19T15:31:42.387Z,20.48
2023-09-19T15:34:10.146Z,20.52
2023-09-19T15:36:40.108Z,20.49
2023-09-19T15:39:10.253Z,20.33
2023-09-19T15:41:42.080Z,20.30
2023-09-19T15:44:17.417Z,20.21
2023-09-19T15:46:45.589Z,20.09
2023-09-19T15:49:13.236Z,20.05
2023-09-19T15:51:41.585Z,19.96
2023-09-19T15:54:16.123Z,19.86
2023-09-19T15:56:44.006Z,19.86
2023-09-19T15:59:13.632Z,19.82
2023-09-19T16:01:44.687Z,19.78
2023-09-19T16:04:13.512Z,19.73
2023-09-19T16:06:41.495Z,19.71
2023-09-19T16:09:09.448Z,19.68
2023-09-19T16:11:36.895Z,19.63
2023-09-19T16:14:04.746Z,19.51
2023-09-19T16:16:32.956Z,19.48
2023-09-19T16:19:04.102Z,19.44
2023-09-19T16:21:32.516Z,19.40
2023-09-19T16:24:00.388Z,19.34
2023-09-19T16:26:28.097Z,19.30
2023-09-19T16:28:57.006Z,19.24
2023-09-19T16:31:24.379Z,19.24
2023-09-19T16:33:51.876Z,19.22
2023-09-19T16:36:19.757Z,19.16
2023-09-19T16:38:49.047Z,19.12
2023-09-19T16:41:17.866Z,19.04
2023-09-19T16:43:45.625Z,18.97
2023-09-19T16:46:13.722Z,18.95
2023-09-19T16:48:56.035Z,18.90
2023-09-19T16:51:29.049Z,18.84
2023-09-19T16:53:57.595Z,18.81
2023-09-19T16:56:25.051Z,18.73
2023-09-19T16:58:53.607Z,18.65
2023-09-19T17:01:22.678Z,18.64
2023-09-19T17:03:50.858Z,18.57
2023-09-19T17:06:20.923Z,18.54
2023-09-19T17:08:48.382Z,18.50
2023-09-19T17:11:17.594Z,18.49
2023-09-19T17:13:48.458Z,18.49
2023-09-19T17:16:24.160Z,18.49
2023-09-19T17:18:57.389Z,18.45
2023-09-19T17:21:26.130Z,18.54
2023-09-19T17:23:55.095Z,18.61
2023-09-19T17:26:23.041Z,18.57
2023-09-19T17:28:50.775Z,18.53
2023-09-19T17:31:20.290Z,18.48
2023-09-19T17:33:48.184Z,18.46
2023-09-19T17:36:19.904Z,18.45
2023-09-19T17:38:48.084Z,18.45
2023-09-19T17:41:18.361Z,18.45
2023-09-19T17:43:48.635Z,18.47
2023-09-19T17:46:20.921Z,18.44
2023-09-19T17:48:49.517Z,18.37
2023-09-19T17:51:18.234Z,18.33
2023-09-19T17:53:46.115Z,18.35
2023-09-19T17:56:16.218Z,18.31
2023-09-19T17:58:44.831Z,18.35
2023-09-19T18:01:20.880Z,18.34
2023-09-19T18:03:48.784Z,18.33
2023-09-19T18:06:17.713Z,18.34
2023-09-19T18:08:45.190Z,18.32
2023-09-19T18:11:19.764Z,18.33
2023-09-19T18:13:52.360Z,18.29
2023-09-19T18:16:20.578Z,18.26
2023-09-19T18:18:53.139Z,18.23
2023-09-19T18:21:21.268Z,18.22
2023-09-19T18:23:58.288Z,18.29
2023-09-19T18:26:26.200Z,18.29
2023-09-19T18:28:53.557Z,18.29
2023-09-19T18:31:20.899Z,18.27
2023-09-19T18:33:51.513Z,18.29
2023-09-19T18:36:18.984Z,18.33
2023-09-19T18:38:47.199Z,18.33
2023-09-19T18:41:18.189Z,18.35
2023-09-19T18:43:46.379Z,18.36
2023-09-19T18:46:13.953Z,18.34
2023-09-19T18:48:46.251Z,18.35
2023-09-19T18:51:16.071Z,18.34
2023-09-19T18:53:47.310Z,18.30
2023-09-19T18:56:19.452Z,18.30
2023-09-19T18:58:50.148Z,18.29
2023-09-19T19:01:17.711Z,18.32
2023-09-19T19:03:46.951Z,18.31
2023-09-19T19:06:16.707Z,18.32
2023-09-19T19:08:45.742Z,18.26
2023-09-19T19:11:18.392Z,18.29
2023-09-19T19:13:49.079Z,18.30
2023-09-19T19:16:17.402Z,18.29
2023-09-19T19:18:45.707Z,18.28
2023-09-19T19:21:14.509Z,18.29
2023-09-19T19:23:42.426Z,18.24
2023-09-19T19:26:10.685Z,18.18
2023-09-19T19:28:40.581Z,18.14
2023-09-19T19:31:11.421Z,18.06
2023-09-19T19:33:40.082Z,18.11
2023-09-19T19:36:11.052Z,18.09
2023-09-19T19:38:38.973Z,18.04
2023-09-19T19:41:06.524Z,18.00
2023-09-19T19:43:34.095Z,17.92
2023-09-19T19:46:04.348Z,17.90
2023-09-19T19:48:31.799Z,17.81
2023-09-19T19:50:59.943Z,17.82
2023-09-19T19:53:27.380Z,17.78
2023-09-19T19:55:54.747Z,17.75
2023-09-19T19:58:26.707Z,17.75
2023-09-19T20:00:57.463Z,17.76
2023-09-19T20:03:27.815Z,17.72
2023-09-19T20:05:56.258Z,17.62
2023-09-19T20:08:23.910Z,17.63
2023-09-19T20:11:54.398Z,17.60
2023-09-19T20:14:22.452Z,17.52
2023-09-19T20:16:49.832Z,17.51
2023-09-19T20:19:17.780Z,17.56
2023-09-19T20:21:45.421Z,17.48
2023-09-19T20:24:17.148Z,17.47
2023-09-19T20:26:44.775Z,17.45
2023-09-19T20:29:12.067Z,17.48
2023-09-19T20:31:39.514Z,17.47
2023-09-19T20:34:07.055Z,17.54
2023-09-19T20:36:35.583Z,17.54
2023-09-19T20:39:03.099Z,17.57
2023-09-19T20:41:30.444Z,17.59
2023-09-19T20:43:57.838Z,17.59
2023-09-19T20:46:25.237Z,17.60
2023-09-19T20:48:52.896Z,17.65
2023-09-19T20:51:26.755Z,17.67
2023-09-19T20:53:54.821Z,17.70
2023-09-19T20:56:22.223Z,17.73
2023-09-19T20:58:49.771Z,17.74
2023-09-19T21:01:18.879Z,17.75
2023-09-19T21:03:46.319Z,17.74
2023-09-19T21:06:14.622Z,17.74
2023-09-19T21:08:43.457Z,17.80
2023-09-19T21:11:16.285Z,17.82
2023-09-19T21:13:44.483Z,17.85
2023-09-19T21:16:18.510Z,17.89
2023-09-19T21:18:46.576Z,17.88
2023-09-19T21:21:14.276Z,17.82
2023-09-19T21:23:42.301Z,17.81
2023-09-19T21:26:12.337Z,17.86
2023-09-19T21:28:40.605Z,17.85
2023-09-19T21:31:09.960Z,17.79
2023-09-19T21:33:39.323Z,17.71
2023-09-19T21:36:15.689Z,17.66
2023-09-19T21:38:43.366Z,17.48
2023-09-19T21:41:13.081Z,17.43
2023-09-19T21:43:40.999Z,17.37
2023-09-19T21:46:09.303Z,17.25
2023-09-19T21:48:37.733Z,17.17
2023-09-19T21:51:07.862Z,17.13
2023-09-19T21:53:35.486Z,17.05
2023-09-19T21:56:04.290Z,16.96
2023-09-19T21:58:35.692Z,16.90
2023-09-19T22:01:09.669Z,16.87
2023-09-19T22:03:41.249Z,16.81
2023-09-19T22:06:10.535Z,16.75
2023-09-19T22:08:38.324Z,16.71
2023-09-19T22:11:12.356Z,16.70
2023-09-19T22:13:42.840Z,16.80
2023-09-19T22:16:11.591Z,16.79
2023-09-19T22:18:39.298Z,16.77
2023-09-19T22:21:14.136Z,16.77
2023-09-19T22:23:44.684Z,16.70
2023-09-19T22:26:16.584Z,16.68
2023-09-19T22:28:44.341Z,16.69
2023-09-19T22:31:16.942Z,16.57
2023-09-19T22:33:51.416Z,16.49
2023-09-19T22:36:32.084Z,16.45
2023-09-19T22:39:02.843Z,16.55
2023-09-19T22:41:31.043Z,16.53
2023-09-19T22:43:58.509Z,16.51
2023-09-19T22:46:29.295Z,16.46
2023-09-19T22:48:57.151Z,16.45
2023-09-19T22:51:25.776Z,16.31
2023-09-19T22:53:59.010Z,16.25
2023-09-19T22:56:29.140Z,16.22
2023-09-19T22:58:56.998Z,16.22
2023-09-19T23:01:36.512Z,16.28
2023-09-19T23:04:13.303Z,16.15
2023-09-19T23:06:52.040Z,16.13
2023-09-19T23:09:23.784Z,16.06
2023-09-19T23:12:03.969Z,16.08
2023-09-19T23:14:35.331Z,16.04
2023-09-19T23:17:05.579Z,16.01
2023-09-19T23:19:33.096Z,15.97
2023-09-19T23:22:24.041Z,15.99
2023-09-19T23:24:56.992Z,15.99
2023-09-19T23:27:34.437Z,15.95
2023-09-19T23:30:02.013Z,15.90
2023-09-19T23:32:29.445Z,15.87
2023-09-19T23:34:58.607Z,15.83
2023-09-19T23:37:26.010Z,15.83
2023-09-19T23:39:53.318Z,15.86
2023-09-19T23:42:21.716Z,15.91
2023-09-19T23:44:52.262Z,15.88
2023-09-19T23:47:19.953Z,15.87
2023-09-19T23:49:50.916Z,15.80
2023-09-19T23:52:19.275Z,15.71
2023-09-19T23:54:48.571Z,15.68
2023-09-19T23:57:16.207Z,15.63
2023-09-19T23:59:46.396Z,15.55
